Sentjur, Slovenia

07:37 AM CEST on oktober 23, 2018 (GMT +0200)
KOSTRIVNICA | | Change Station

Viš 1722 ft 46.15 °N, 15.38 °E | Updated 6 seconds ago

Jasno
Jasno
42.3 °F
Feels Like 41 °F
N
3.1
Veter Spremenljivo Veter od JZ
Gusts 3.8 mph

Danes
High -- | Low -- °F
--% Chance of Precip.
Yesterday
High -- | Low -- °F
Precip. -- v
Zračni tlak 30.30 v
Vidljivost 3.7 milje
Oblaki
Občutek zaradi vetra 41 °F
Rosišče 41 °F
Vlažnost 95%
Padavine 0.00 v
Snow Depth Not available.
7:26 AM 5:58 PM
Naraščajoča luna, 98% visible
METAR LJCE 230530Z 17004KT 6000 0800W PRFG NSC 04/04 Q1026 RMK AMB
Zračni tlak 30.30 v
Vidljivost 3.7 milje
Oblaki
Občutek zaradi vetra 41 °F
Rosišče 41 °F
Vlažnost 95%
Padavine 0.00 v
Snow Depth Not available.
7:26 AM 5:58 PM
Naraščajoča luna, 98% visible
METAR LJCE 230530Z 17004KT 6000 0800W PRFG NSC 04/04 Q1026 RMK AMB

Get Severe Weather Alerts

Thanks for signing up!

Be on the lookout for a verification email in your inbox.

You'll start receiving the daily forecast at 6 AM.

×

10-Day Weather Forecast

×

Almanac

Astronomija

Oct. 23, 2018 Rise Set
Actual Time
Civil Twilight
Nautical Twilight
Astronomical Twilight
Moon
Length Of Visible Light
Dolžina dneva
Tomorrow will be .
, % of the Moon is Illuminated

Današnji ekstremi

Country Highs Country Lows

Community

WunderPhotos

Category 6

Welcome to Category 6. This is the collective home for Weather Underground's featured writeups by Dr. Jeff Masters (right), Bob Henson (left), Chris Burt, and other regular contributors.

Nearby

Air Quality

  Air Quality AQ Index Pollutant
Not available.

Snow Depth

Station Depth Višina

Earthquake Activity

City Distance Mag. Time & Date
Minimum magnitude displayed is 2.5.

Coastal Water Temperatures

Mesto Temperatura

Stations

Nearby Weather Stations

Station Location Temp Občutek zaradi vetra Rosišče Vlažnost Veter Precip. Viš Obnovljeno Type